Time;durP1;ratioP1;P1;durP2;ratioP2;P2;SDS_P1;SDS_P2;PMS_P1;PMS_P2;Temp;Humidity;BMP_temperature;BMP_pressure;BME280_temperature;BME280_humidity;BME280_pressure;Samples;Min_cycle;Max_cycle;Signal;HPM_P1;HPM_P2
2022/08/22 00:01:04;;;;;;;5.43;2.95;;;17.90;99.90;;;;;;4990017;28;20073;-74
2022/08/22 00:03:48;;;;;;;4.40;2.47;;;17.90;99.90;;;;;;4984480;28;20027;-74
2022/08/22 00:06:44;;;;;;;6.68;3.25;;;17.90;99.90;;;;;;4984745;28;20015;-74
2022/08/22 00:09:28;;;;;;;5.93;2.78;;;17.90;99.90;;;;;;4990054;28;20491;-73
2022/08/22 00:12:19;;;;;;;6.72;2.63;;;17.90;99.90;;;;;;4993013;28;20066;-73
2022/08/22 00:15:07;;;;;;;5.25;3.10;;;17.80;99.90;;;;;;4989371;28;20092;-73
2022/08/22 00:17:50;;;;;;;4.32;2.55;;;17.80;99.90;;;;;;5002277;28;20031;-73
2022/08/22 00:20:37;;;;;;;4.18;2.72;;;17.80;99.90;;;;;;4995438;28;20041;-74
2022/08/22 00:23:27;;;;;;;4.28;2.72;;;17.80;99.90;;;;;;4993743;28;20041;-73
2022/08/22 00:26:08;;;;;;;8.35;2.97;;;17.70;99.90;;;;;;4987031;28;20068;-74
2022/08/22 00:28:37;;;;;;;7.22;3.85;;;17.60;99.90;;;;;;4998283;23;20074;-73
2022/08/22 00:31:31;;;;;;;5.57;3.33;;;17.60;99.90;;;;;;4966929;28;20516;-72
2022/08/22 00:34:08;;;;;;;7.18;2.92;;;17.50;99.90;;;;;;4968519;28;20034;-72
2022/08/22 00:37:02;;;;;;;5.20;3.20;;;17.50;99.90;;;;;;4969716;28;20039;-73
2022/08/22 00:39:39;;;;;;;;;;;17.50;99.90;;;;;;4981185;28;20114;-72
2022/08/22 00:42:23;;;;;;;7.35;3.35;;;17.40;99.90;;;;;;4981658;28;20273;-73
2022/08/22 00:45:10;;;;;;;5.13;2.88;;;17.50;99.90;;;;;;4982800;28;20503;-73
2022/08/22 00:47:44;;;;;;;5.97;3.30;;;17.40;99.90;;;;;;4965415;28;20055;-73
2022/08/22 00:50:44;;;;;;;8.13;3.15;;;17.40;99.90;;;;;;4965380;28;20030;-73
2022/08/22 00:53:24;;;;;;;7.22;3.58;;;17.30;99.90;;;;;;4965197;28;20023;-73
2022/08/22 00:56:10;;;;;;;5.35;2.60;;;17.20;99.90;;;;;;4968924;28;20031;-73
2022/08/22 00:58:44;;;;;;;5.47;3.42;;;17.20;99.90;;;;;;4978762;28;20451;-73
2022/08/22 01:01:13;;;;;;;5.68;2.67;;;17.20;99.90;;;;;;4965249;28;20034;-73
2022/08/22 01:03:49;;;;;;;5.13;3.22;;;17.20;99.90;;;;;;4966453;28;20019;-73
2022/08/22 01:06:51;;;;;;;5.03;3.33;;;17.20;99.90;;;;;;4968038;28;20049;-73
2022/08/22 01:09:51;;;;;;;5.97;2.97;;;17.20;99.90;;;;;;4972642;28;20027;-73
2022/08/22 01:12:36;;;;;;;6.28;3.22;;;17.20;99.90;;;;;;4969070;28;20038;-74
2022/08/22 01:15:07;;;;;;;7.50;2.25;;;17.20;99.90;;;;;;4969048;28;20061;-74
2022/08/22 01:18:02;;;;;;;5.70;2.60;;;17.20;99.90;;;;;;4970908;28;20479;-74
2022/08/22 01:21:06;;;;;;;7.78;2.83;;;17.20;99.90;;;;;;4969956;28;20117;-73
2022/08/22 01:23:58;;;;;;;5.70;2.88;;;17.10;99.90;;;;;;4983743;28;21477;-73
2022/08/22 01:26:53;;;;;;;5.38;2.45;;;17.10;99.90;;;;;;4989813;28;20472;-73
2022/08/22 01:29:44;;;;;;;4.78;2.92;;;17.20;99.90;;;;;;4967641;28;20050;-72
2022/08/22 01:32:30;;;;;;;4.60;2.55;;;17.10;99.90;;;;;;4971085;28;20030;-72
2022/08/22 01:35:23;;;;;;;3.78;2.78;;;17.10;99.90;;;;;;4965950;28;20384;-73
2022/08/22 01:38:05;;;;;;;4.85;2.92;;;17.10;99.90;;;;;;4972506;28;20102;-73
2022/08/22 01:40:37;;;;;;;6.35;3.13;;;17.00;99.90;;;;;;4970806;28;20034;-73
2022/08/22 01:43:15;;;;;;;3.88;2.75;;;17.10;99.90;;;;;;4967763;28;20019;-73
2022/08/22 01:45:56;;;;;;;5.68;2.88;;;17.10;99.90;;;;;;4970807;28;20353;-73
2022/08/22 01:48:36;;;;;;;5.68;2.67;;;17.10;99.90;;;;;;4969560;28;20039;-72
2022/08/22 01:51:02;;;;;;;4.07;2.58;;;17.10;99.90;;;;;;4968155;28;20045;-71
2022/08/22 01:53:48;;;;;;;5.40;3.20;;;17.10;99.90;;;;;;4971768;28;20038;-72
2022/08/22 01:56:22;;;;;;;6.65;2.75;;;17.10;99.90;;;;;;4964904;28;20050;-71
2022/08/22 01:59:01;;;;;;;5.45;2.60;;;17.10;99.90;;;;;;4968712;28;20522;-72
2022/08/22 02:01:29;;;;;;;5.60;3.17;;;17.10;99.90;;;;;;4968065;28;20484;-72
2022/08/22 02:04:23;;;;;;;8.90;3.17;;;17.10;99.90;;;;;;4968552;28;20027;-72
2022/08/22 02:06:57;;;;;;;5.65;3.33;;;17.00;99.90;;;;;;4971533;28;20035;-72
2022/08/22 02:09:57;;;;;;;6.50;2.40;;;17.00;99.90;;;;;;4970223;28;20023;-72
2022/08/22 02:12:41;;;;;;;11.57;3.25;;;17.00;99.90;;;;;;4970417;28;20136;-73
2022/08/22 02:15:25;;;;;;;3.80;2.75;;;17.00;99.90;;;;;;4984045;28;20031;-72
2022/08/22 02:17:59;;;;;;;4.00;2.47;;;16.90;99.90;;;;;;4967059;28;20085;-72
2022/08/22 02:20:42;;;;;;;5.90;3.13;;;16.90;99.90;;;;;;4969340;28;20106;-73
2022/08/22 02:23:32;;;;;;;3.88;2.58;;;16.90;99.90;;;;;;4968292;28;20471;-73
2022/08/22 02:26:00;;;;;;;7.82;3.13;;;16.80;99.90;;;;;;4969670;28;20387;-72
2022/08/22 02:28:59;;;;;;;4.10;2.42;;;16.80;99.90;;;;;;4971425;28;20416;-73
2022/08/22 02:31:44;;;;;;;5.22;3.10;;;16.80;99.90;;;;;;4968893;28;20546;-73
2022/08/22 02:34:36;;;;;;;;;;;16.80;99.90;;;;;;4966008;28;20031;-73
2022/08/22 02:37:16;;;;;;;5.57;3.03;;;16.80;99.90;;;;;;4970585;28;19910;-73
2022/08/22 02:40:16;;;;;;;6.85;2.53;;;16.80;99.90;;;;;;4969464;28;20165;-71
2022/08/22 02:42:48;;;;;;;6.28;3.40;;;16.80;99.90;;;;;;4964454;28;20046;-73
2022/08/22 02:45:41;;;;;;;6.93;3.03;;;16.70;99.90;;;;;;4981710;28;20035;-73
2022/08/22 02:48:24;;;;;;;5.72;2.70;;;16.70;99.90;;;;;;4967123;28;20167;-73
2022/08/22 02:51:09;;;;;;;5.18;2.90;;;16.70;99.90;;;;;;4969687;28;20031;-74
2022/08/22 02:53:47;;;;;;;6.15;3.05;;;16.70;99.90;;;;;;4969383;28;20105;-74
2022/08/22 02:56:22;;;;;;;4.20;2.85;;;16.60;99.90;;;;;;4968531;28;21022;-74
2022/08/22 02:58:55;;;;;;;6.30;2.80;;;16.60;99.90;;;;;;4968644;28;20031;-74
2022/08/22 03:01:43;;;;;;;6.50;3.17;;;16.60;99.90;;;;;;4969408;28;20559;-74
2022/08/22 03:04:24;;;;;;;6.03;3.45;;;16.60;99.90;;;;;;4983086;28;20113;-73
2022/08/22 03:07:20;;;;;;;5.25;3.15;;;16.50;99.90;;;;;;4971671;28;20397;-73
2022/08/22 03:10:11;;;;;;;4.47;2.90;;;16.50;99.90;;;;;;4964691;28;20111;-71
2022/08/22 03:12:48;;;;;;;5.47;3.20;;;16.50;99.90;;;;;;4968072;28;20062;-72
2022/08/22 03:15:38;;;;;;;8.27;3.80;;;16.50;99.90;;;;;;4966073;28;20512;-73
2022/08/22 03:18:43;;;;;;;8.35;3.28;;;16.40;99.90;;;;;;4964861;28;20030;-73
2022/08/22 03:21:33;;;;;;;7.32;4.30;;;16.40;99.90;;;;;;4965585;28;20036;-72
2022/08/22 03:24:23;;;;;;;7.78;3.80;;;16.30;99.90;;;;;;4969611;28;20035;-73
2022/08/22 03:27:16;;;;;;;7.53;3.58;;;16.30;99.90;;;;;;4962361;28;20027;-71
2022/08/22 03:30:19;;;;;;;8.02;4.13;;;16.20;99.90;;;;;;4978067;28;20047;-73
2022/08/22 03:32:52;;;;;;;8.07;3.72;;;16.20;99.90;;;;;;4947775;28;20035;-71
2022/08/22 03:35:23;;;;;;;9.45;4.60;;;16.10;99.90;;;;;;4977569;28;20042;-74
2022/08/22 03:37:55;;;;;;;8.18;4.20;;;16.10;99.90;;;;;;4964743;28;20027;-72
2022/08/22 03:40:40;;;;;;;5.47;3.58;;;16.00;99.90;;;;;;4965053;28;20031;-74
2022/08/22 03:43:29;;;;;;;7.60;4.30;;;16.00;99.90;;;;;;4966136;28;20050;-75
2022/08/22 03:46:26;;;;;;;7.95;3.70;;;15.90;99.90;;;;;;4963614;28;20035;-75
2022/08/22 03:49:07;;;;;;;5.68;3.50;;;15.90;99.90;;;;;;4969898;28;20051;-74
2022/08/22 03:51:49;;;;;;;6.18;3.17;;;15.80;99.90;;;;;;4963576;28;20480;-74
2022/08/22 03:54:25;;;;;;;8.82;4.18;;;15.80;99.90;;;;;;4969402;28;20034;-73
2022/08/22 03:57:23;;;;;;;8.60;3.33;;;15.80;99.90;;;;;;4965094;28;20038;-75
2022/08/22 04:00:01;;;;;;;5.65;3.30;;;15.80;99.90;;;;;;4954192;28;20047;-76
2022/08/22 04:02:36;;;;;;;9.77;4.45;;;15.80;99.90;;;;;;4968284;28;20113;-76
2022/08/22 04:05:33;;;;;;;8.27;3.63;;;15.80;99.90;;;;;;4966227;28;20491;-75
2022/08/22 04:08:18;;;;;;;5.43;3.42;;;15.70;99.90;;;;;;4959647;28;20054;-74
2022/08/22 04:11:15;;;;;;;9.38;3.75;;;15.70;99.90;;;;;;4963042;28;20066;-75
2022/08/22 04:14:02;;;;;;;11.68;4.32;;;15.70;99.90;;;;;;4967975;28;20023;-75
2022/08/22 04:17:07;;;;;;;9.57;3.58;;;15.70;99.90;;;;;;4980715;28;20030;-74
2022/08/22 04:20:01;;;;;;;7.90;3.88;;;15.60;99.90;;;;;;4968263;28;20468;-72
2022/08/22 04:22:38;;;;;;;5.80;3.58;;;15.60;99.90;;;;;;4965317;28;20058;-75
2022/08/22 04:25:14;;;;;;;10.30;3.63;;;15.60;99.90;;;;;;4963120;28;20022;-75
2022/08/22 04:27:59;;;;;;;7.32;4.03;;;15.60;99.90;;;;;;4965263;28;20027;-74
2022/08/22 04:30:47;;;;;;;4.35;3.17;;;15.50;99.90;;;;;;4967979;28;20488;-75
2022/08/22 04:33:29;;;;;;;7.72;3.55;;;15.50;99.90;;;;;;4969775;28;20105;-75
2022/08/22 04:36:02;;;;;;;5.55;3.53;;;15.50;99.90;;;;;;4965156;28;20498;-74
2022/08/22 04:38:37;;;;;;;5.45;3.38;;;15.50;99.90;;;;;;4964631;28;20502;-75
2022/08/22 04:41:33;;;;;;;7.40;3.70;;;15.60;99.90;;;;;;4983250;28;20030;-76
2022/08/22 04:44:12;;;;;;;4.65;2.88;;;15.50;99.90;;;;;;4967571;28;20118;-75
2022/08/22 04:46:47;;;;;;;4.88;3.30;;;15.50;99.90;;;;;;4970872;28;20018;-75
2022/08/22 04:49:12;;;;;;;5.78;3.25;;;15.50;99.90;;;;;;4987866;28;20023;-75
2022/08/22 04:52:09;;;;;;;4.55;3.10;;;15.50;99.90;;;;;;4986084;28;20026;-75
2022/08/22 04:54:47;;;;;;;6.20;3.35;;;15.50;99.90;;;;;;4967884;28;20046;-75
2022/08/22 04:57:31;;;;;;;5.47;2.97;;;15.50;99.90;;;;;;4971060;28;20026;-74
2022/08/22 05:00:01;;;;;;;6.07;3.45;;;15.50;99.90;;;;;;4974853;28;20356;-69
2022/08/22 05:02:27;;;;;;;6.82;3.03;;;15.50;99.90;;;;;;4984216;28;20070;-70
2022/08/22 05:05:23;;;;;;;5.32;3.05;;;15.50;99.90;;;;;;4970915;28;20125;-70
2022/08/22 05:07:54;;;;;;;5.82;3.58;;;15.50;99.90;;;;;;4967521;28;20043;-70
2022/08/22 05:10:34;;;;;;;4.75;3.05;;;15.60;99.90;;;;;;4985330;28;20200;-69
2022/08/22 05:13:09;;;;;;;7.28;2.95;;;15.60;99.90;;;;;;4970274;28;20031;-69
2022/08/22 05:15:39;;;;;;;6.32;2.72;;;15.70;99.90;;;;;;4972885;28;20023;-69
2022/08/22 05:18:11;;;;;;;4.85;3.20;;;15.80;99.90;;;;;;4967497;28;20054;-71
2022/08/22 05:20:39;;;;;;;4.50;3.20;;;15.90;99.90;;;;;;4984060;28;20058;-69
2022/08/22 05:23:22;;;;;;;5.82;3.08;;;16.00;99.90;;;;;;4966416;28;20050;-76
2022/08/22 05:25:52;;;;;;;4.72;3.03;;;16.10;99.90;;;;;;4971751;28;20027;-75
2022/08/22 05:28:34;;;;;;;6.30;3.10;;;16.30;99.90;;;;;;4968609;28;20019;-75
2022/08/22 05:31:29;;;;;;;5.82;2.85;;;16.40;99.90;;;;;;4970776;28;20105;-76
2022/08/22 05:34:02;;;;;;;5.93;3.15;;;16.50;99.90;;;;;;4971566;28;20439;-75
2022/08/22 05:36:34;;;;;;;8.98;3.75;;;16.70;99.90;;;;;;4969723;28;20023;-76
2022/08/22 05:39:06;;;;;;;4.50;3.20;;;16.80;99.90;;;;;;4964520;28;20488;-76
2022/08/22 05:41:35;;;;;;;8.85;3.25;;;16.80;99.90;;;;;;4967006;28;20035;-73
2022/08/22 05:44:01;;;;;;;6.05;3.20;;;16.90;99.90;;;;;;4972311;28;20015;-73
2022/08/22 05:46:45;;;;;;;7.38;3.47;;;17.00;99.90;;;;;;4969956;28;20027;-76
2022/08/22 05:49:24;;;;;;;4.47;3.35;;;17.10;99.90;;;;;;4969061;28;20499;-76
2022/08/22 05:51:56;;;;;;;5.50;3.17;;;17.10;99.90;;;;;;4968921;28;20042;-76
2022/08/22 05:54:27;;;;;;;8.73;3.50;;;17.20;99.90;;;;;;4969668;28;20070;-76
2022/08/22 05:57:02;;;;;;;5.13;3.05;;;17.30;99.90;;;;;;4982497;28;20122;-73
2022/08/22 05:59:31;;;;;;;8.82;3.58;;;17.30;99.90;;;;;;4988183;28;20114;-74
2022/08/22 06:02:25;;;;;;;7.68;3.33;;;17.40;99.90;;;;;;4966428;28;20907;-75
2022/08/22 06:04:56;;;;;;;6.43;3.42;;;17.40;99.90;;;;;;4969920;28;20484;-75
2022/08/22 06:07:38;;;;;;;8.23;3.38;;;17.40;99.90;;;;;;4967672;28;21999;-75
2022/08/22 06:10:07;;;;;;;5.32;3.60;;;17.30;99.90;;;;;;4970404;28;20026;-75
2022/08/22 06:12:37;;;;;;;5.65;2.83;;;17.20;99.90;;;;;;4980471;28;20339;-75
2022/08/22 06:15:11;;;;;;;6.35;3.05;;;17.20;99.90;;;;;;4973746;28;20110;-74
2022/08/22 06:17:44;;;;;;;7.45;3.22;;;17.20;99.90;;;;;;4964288;28;20042;-75
2022/08/22 06:20:16;;;;;;;12.75;3.55;;;17.20;99.90;;;;;;4967738;28;20122;-74
2022/08/22 06:22:51;;;;;;;7.45;3.17;;;17.20;99.90;;;;;;4971461;28;20027;-75
2022/08/22 06:25:23;;;;;;;8.07;3.15;;;17.30;99.90;;;;;;4970185;28;20077;-76
2022/08/22 06:27:51;;;;;;;8.57;3.72;;;17.30;99.90;;;;;;4966484;28;20027;-75
2022/08/22 06:30:18;;;;;;;5.90;3.83;;;17.40;99.90;;;;;;5004461;23;20049;-75
2022/08/22 06:32:53;;;;;;;10.13;4.32;;;17.50;99.90;;;;;;4997053;28;20038;-75
2022/08/22 06:36:29;;;;;;;8.90;4.57;;;17.50;99.90;;;;;;4996147;28;20022;-75
2022/08/22 06:38:21;;;;;;;6.93;4.50;;;17.60;99.90;;;;;;4995419;28;20507;-75
2022/08/22 06:40:50;;;;;;;7.45;4.93;;;17.70;99.90;;;;;;5016231;28;20160;-74
2022/08/22 06:43:17;;;;;;;7.20;4.40;;;17.70;99.90;;;;;;4994506;28;20061;-75
2022/08/22 06:45:43;;;;;;;9.73;4.55;;;17.80;99.90;;;;;;4998347;28;20054;-75
2022/08/22 06:48:15;;;;;;;7.72;5.03;;;17.90;99.90;;;;;;5000178;28;20049;-76
2022/08/22 06:50:43;;;;;;;9.27;4.68;;;17.90;99.90;;;;;;4992422;28;20022;-75
2022/08/22 06:53:30;;;;;;;8.55;5.10;;;18.00;99.90;;;;;;5011758;28;20038;-76
2022/08/22 06:56:01;;;;;;;7.22;4.85;;;18.00;99.90;;;;;;5008692;28;20049;-76
2022/08/22 06:58:46;;;;;;;7.82;4.38;;;18.00;99.90;;;;;;5011081;28;20479;-75
2022/08/22 07:01:16;;;;;;;6.07;4.75;;;18.10;99.90;;;;;;4997690;28;20027;-74
2022/08/22 07:03:51;;;;;;;7.18;5.03;;;18.20;99.90;;;;;;4990000;28;20030;-73
2022/08/22 07:06:23;;;;;;;8.57;4.63;;;18.20;99.90;;;;;;4989545;28;20785;-74
2022/08/22 07:08:53;;;;;;;9.65;4.03;;;18.20;99.90;;;;;;4987869;28;20034;-76
2022/08/22 07:11:26;;;;;;;9.45;4.05;;;18.20;99.90;;;;;;4989814;28;20486;-73
2022/08/22 07:13:56;;;;;;;7.25;4.43;;;18.20;99.90;;;;;;4990576;28;20022;-73
2022/08/22 07:16:33;;;;;;;11.43;4.82;;;18.30;99.90;;;;;;4996113;28;20034;-75
2022/08/22 07:19:00;;;;;;;12.30;4.80;;;18.40;99.90;;;;;;4988623;28;20036;-74
2022/08/22 07:21:29;;;;;;;7.80;4.28;;;18.40;99.90;;;;;;4995687;28;20030;-73
2022/08/22 07:23:56;;;;;;;12.40;5.00;;;18.40;99.90;;;;;;5006825;28;20026;-74
2022/08/22 07:26:41;;;;;;;9.80;5.13;;;18.50;99.90;;;;;;4992569;28;20491;-76
2022/08/22 07:29:10;;;;;;;10.93;4.35;;;18.60;99.90;;;;;;4993733;28;20026;-75
2022/08/22 07:31:37;;;;;;;12.82;4.40;;;18.60;99.90;;;;;;4999288;28;20478;-77
2022/08/22 07:34:31;;;;;;;11.50;5.03;;;18.70;99.90;;;;;;5007879;28;20026;-74
2022/08/22 07:37:00;;;;;;;9.02;4.35;;;18.80;99.90;;;;;;5007284;28;20022;-74
2022/08/22 07:39:37;;;;;;;8.15;4.55;;;18.80;99.90;;;;;;4991189;28;20030;-74
2022/08/22 07:42:13;;;;;;;10.05;3.45;;;18.90;99.90;;;;;;4996124;28;20026;-74
2022/08/22 07:45:09;;;;;;;9.13;3.85;;;19.00;99.90;;;;;;4994690;28;20025;-73
2022/08/22 07:47:53;;;;;;;7.32;3.92;;;19.10;99.90;;;;;;4990008;28;20468;-74
2022/08/22 07:50:23;;;;;;;10.00;4.80;;;19.10;99.90;;;;;;5001776;28;20490;-73
2022/08/22 07:52:51;;;;;;;8.25;3.95;;;19.20;99.90;;;;;;4987578;28;20034;-73
2022/08/22 07:55:21;;;;;;;8.30;4.47;;;19.30;99.90;;;;;;4987290;28;20018;-74
2022/08/22 07:57:56;;;;;;;12.23;5.18;;;19.40;99.90;;;;;;5008871;28;20022;-73
2022/08/22 08:00:23;;;;;;;7.45;3.95;;;19.50;99.90;;;;;;5006594;28;20026;-74
2022/08/22 08:02:55;;;;;;;12.52;4.95;;;19.60;99.90;;;;;;4987851;28;20479;-73
2022/08/22 08:05:23;;;;;;;7.45;4.63;;;19.60;99.90;;;;;;4991264;28;20104;-74
2022/08/22 08:07:52;;;;;;;8.25;5.15;;;19.70;99.90;;;;;;4992287;28;20451;-74
2022/08/22 08:10:22;;;;;;;8.27;4.15;;;19.80;99.90;;;;;;5003757;28;20140;-74
2022/08/22 08:12:53;;;;;;;8.48;4.80;;;19.90;99.90;;;;;;4988550;28;20513;-74
2022/08/22 08:15:21;;;;;;;6.05;4.22;;;20.00;99.90;;;;;;4994078;28;20049;-73
2022/08/22 08:17:53;;;;;;;8.07;4.07;;;20.00;99.90;;;;;;4998684;28;20471;-74
2022/08/22 08:20:21;;;;;;;10.68;3.80;;;20.10;99.90;;;;;;4995563;28;20116;-74
2022/08/22 08:22:49;;;;;;;5.20;3.03;;;20.20;99.90;;;;;;4997547;28;20469;-75
2022/08/22 08:25:21;;;;;;;4.82;3.33;;;20.30;99.90;;;;;;4994178;28;20369;-74
2022/08/22 08:30:43;;;;;;;5.10;3.08;;;20.50;99.90;;;;;;4995036;28;20501;-75
2022/08/22 08:33:17;;;;;;;6.30;3.90;;;20.60;99.90;;;;;;4995406;28;20090;-75
2022/08/22 08:35:52;;;;;;;8.02;3.50;;;20.60;99.90;;;;;;4999261;28;20015;-76
2022/08/22 08:38:24;;;;;;;5.63;3.40;;;20.70;99.90;;;;;;4986107;28;20030;-76
2022/08/22 08:41:00;;;;;;;11.98;3.85;;;20.80;99.90;;;;;;4998501;28;20398;-75
2022/08/22 08:43:54;;;;;;;7.43;3.35;;;20.80;99.90;;;;;;4999104;28;20027;-75
2022/08/22 08:46:26;;;;;;;7.72;3.70;;;20.90;99.90;;;;;;4990729;28;20068;-74
2022/08/22 08:49:10;;;;;;;6.55;3.42;;;21.00;99.90;;;;;;4999634;28;20026;-74
2022/08/22 08:51:44;;;;;;;6.85;3.50;;;21.00;99.90;;;;;;4994497;28;20104;-74
2022/08/22 08:54:46;;;;;;;7.35;3.22;;;21.10;99.90;;;;;;5002903;28;20022;-75
2022/08/22 08:57:29;;;;;;;6.25;3.10;;;21.20;99.90;;;;;;4993168;28;20072;-75
2022/08/22 09:00:09;;;;;;;8.52;3.80;;;21.30;99.60;;;;;;4991992;28;20038;-74
2022/08/22 09:02:35;;;;;;;6.13;3.22;;;21.40;99.40;;;;;;4993321;28;20835;-73
2022/08/22 09:05:13;;;;;;;5.10;2.72;;;21.40;99.20;;;;;;4991709;28;20109;-74
2022/08/22 09:07:57;;;;;;;4.35;2.92;;;21.50;98.30;;;;;;4986199;28;20026;-75
2022/08/22 09:10:29;;;;;;;6.07;2.97;;;21.60;97.70;;;;;;5008886;28;20026;-74
2022/08/22 09:13:10;;;;;;;7.28;3.30;;;21.60;97.60;;;;;;4990647;28;20092;-74
2022/08/22 09:15:57;;;;;;;11.32;6.32;;;21.70;97.00;;;;;;4988410;28;20027;-74
2022/08/22 09:18:37;;;;;;;9.55;3.67;;;21.80;96.80;;;;;;4991813;28;20117;-74
2022/08/22 09:21:27;;;;;;;5.00;2.58;;;21.90;96.30;;;;;;4993517;28;20026;-72
2022/08/22 09:24:01;;;;;;;8.23;2.70;;;22.00;96.00;;;;;;4988249;28;20026;-72
2022/08/22 09:26:28;;;;;;;9.07;3.50;;;22.00;96.00;;;;;;4992505;28;20160;-75
2022/08/22 09:29:10;;;;;;;7.93;3.17;;;22.10;95.80;;;;;;4993014;28;20042;-73
2022/08/22 09:31:55;;;;;;;6.68;2.70;;;22.10;95.40;;;;;;4989075;28;20027;-74
2022/08/22 09:34:26;;;;;;;7.00;3.38;;;22.20;95.10;;;;;;4991610;28;20093;-73
2022/08/22 09:37:00;;;;;;;3.35;2.47;;;22.30;94.80;;;;;;4990337;28;20525;-74
2022/08/22 09:39:37;;;;;;;5.82;2.75;;;22.30;94.70;;;;;;4981636;28;20038;-74
2022/08/22 09:42:18;;;;;;;6.53;2.85;;;22.40;94.60;;;;;;4991169;28;20026;-73
2022/08/22 09:45:11;;;;;;;5.20;2.90;;;22.40;94.20;;;;;;4990592;28;20065;-74
2022/08/22 09:47:49;;;;;;;9.02;2.75;;;22.50;93.90;;;;;;4985530;28;20065;-74
2022/08/22 09:50:23;;;;;;;4.72;2.97;;;22.60;93.80;;;;;;4988535;28;20498;-72
2022/08/22 09:53:10;;;;;;;5.50;3.13;;;22.70;93.90;;;;;;5004934;28;20035;-73
2022/08/22 09:55:47;;;;;;;5.47;2.80;;;22.80;93.60;;;;;;4986755;28;20541;-74
2022/08/22 09:58:44;;;;;;;7.10;3.38;;;22.90;93.70;;;;;;4991262;28;20030;-75
2022/08/22 10:01:38;;;;;;;8.98;2.75;;;23.00;93.60;;;;;;4990507;28;20058;-74
2022/08/22 10:04:13;;;;;;;6.70;3.20;;;23.10;93.40;;;;;;4982892;28;20055;-74
2022/08/22 10:07:02;;;;;;;7.70;3.55;;;23.10;93.20;;;;;;4985969;28;20387;-76
2022/08/22 10:09:51;;;;;;;7.50;2.95;;;23.10;92.90;;;;;;4985579;28;20044;-76
2022/08/22 10:12:26;;;;;;;7.88;3.80;;;23.20;92.70;;;;;;5005856;28;20030;-74
2022/08/22 10:15:22;;;;;;;5.72;2.90;;;23.30;92.50;;;;;;5002671;28;20027;-73
2022/08/22 10:17:59;;;;;;;5.72;2.75;;;23.30;90.60;;;;;;4988959;28;20646;-74
2022/08/22 10:20:34;;;;;;;5.40;3.05;;;23.40;90.20;;;;;;5003734;28;20026;-74
2022/08/22 10:23:12;;;;;;;5.63;2.92;;;23.50;90.30;;;;;;4988927;28;20127;-75
2022/08/22 10:25:52;;;;;;;9.27;3.33;;;23.60;90.90;;;;;;4989880;28;20106;-74
2022/08/22 10:28:53;;;;;;;5.38;3.13;;;23.70;90.60;;;;;;4988407;28;20029;-74
2022/08/22 10:31:40;;;;;;;4.50;2.83;;;23.80;90.30;;;;;;5007127;28;20030;-74
2022/08/22 10:34:15;;;;;;;4.57;2.97;;;23.90;89.50;;;;;;4992617;28;20087;-75
2022/08/22 10:36:49;;;;;;;4.82;3.00;;;24.00;89.30;;;;;;4988985;28;20033;-75
2022/08/22 10:39:40;;;;;;;6.32;2.80;;;24.10;87.90;;;;;;4988871;28;20062;-71
2022/08/22 10:42:20;;;;;;;7.10;3.40;;;24.10;87.70;;;;;;4994846;28;20064;-72
2022/08/22 10:45:02;;;;;;;5.53;2.95;;;24.10;87.60;;;;;;4987719;28;20138;-73
2022/08/22 10:47:41;;;;;;;10.00;3.25;;;24.20;87.10;;;;;;4988008;28;20092;-73
2022/08/22 10:50:20;;;;;;;5.78;2.90;;;24.20;88.50;;;;;;4985129;28;20022;-73
2022/08/22 10:52:50;;;;;;;5.65;2.95;;;24.20;87.10;;;;;;4991291;28;20022;-74
2022/08/22 10:55:22;;;;;;;3.72;2.80;;;24.30;83.80;;;;;;4987693;28;20063;-73
2022/08/22 10:58:03;;;;;;;4.30;2.90;;;24.30;83.30;;;;;;4985924;28;20026;-73
2022/08/22 11:00:41;;;;;;;4.95;2.70;;;24.30;82.40;;;;;;4987159;28;20034;-73
2022/08/22 11:03:31;;;;;;;3.80;2.17;;;24.30;83.30;;;;;;4992306;28;20026;-73
2022/08/22 11:06:00;;;;;;;4.13;3.00;;;24.40;82.30;;;;;;4987982;28;20674;-73
2022/08/22 11:08:38;;;;;;;8.02;2.92;;;24.40;81.60;;;;;;4987826;28;20106;-73
2022/08/22 11:11:15;;;;;;;6.70;2.60;;;24.40;81.00;;;;;;5005623;28;20026;-74
2022/08/22 11:14:11;;;;;;;3.67;2.67;;;24.50;78.80;;;;;;4984546;28;20038;-74
2022/08/22 11:16:52;;;;;;;4.43;2.72;;;24.50;78.50;;;;;;4995462;28;20037;-72
2022/08/22 11:19:55;;;;;;;5.45;2.58;;;24.50;79.70;;;;;;4983677;28;20038;-72
2022/08/22 11:22:32;;;;;;;3.55;2.80;;;24.60;80.70;;;;;;4989098;28;20057;-71
2022/08/22 11:25:06;;;;;;;4.72;2.80;;;24.60;79.80;;;;;;4985171;28;20085;-71
2022/08/22 11:27:50;;;;;;;4.40;2.60;;;24.70;79.40;;;;;;4987434;28;20023;-71
2022/08/22 11:30:39;;;;;;;4.22;3.00;;;24.80;77.80;;;;;;4984989;28;20420;-71
2022/08/22 11:33:32;;;;;;;5.30;3.05;;;24.90;76.00;;;;;;4985609;28;20125;-71
2022/08/22 11:36:09;;;;;;;5.85;2.88;;;24.90;77.60;;;;;;5000907;28;20045;-71
2022/08/22 11:38:56;;;;;;;4.55;3.15;;;25.00;76.10;;;;;;4986232;28;20026;-71
2022/08/22 11:41:28;;;;;;;6.05;2.85;;;25.00;75.80;;;;;;4990966;28;20088;-71
2022/08/22 11:44:07;;;;;;;5.45;2.50;;;25.10;75.40;;;;;;4993079;28;20076;-73
2022/08/22 11:46:41;;;;;;;6.80;3.10;;;25.20;74.80;;;;;;4995368;28;20021;-72
2022/08/22 11:49:31;;;;;;;3.30;2.40;;;25.30;73.70;;;;;;5000241;28;20022;-72
2022/08/22 11:52:17;;;;;;;7.38;3.13;;;25.40;73.60;;;;;;4987316;28;20030;-72
2022/08/22 11:54:58;;;;;;;4.95;2.42;;;25.40;73.10;;;;;;4985387;28;20811;-72
2022/08/22 11:57:38;;;;;;;4.85;2.60;;;25.50;73.10;;;;;;4982012;28;20030;-72
2022/08/22 12:00:36;;;;;;;5.43;2.70;;;25.60;72.70;;;;;;4993452;28;20046;-73
2022/08/22 12:03:02;;;;;;;6.25;2.60;;;25.70;69.30;;;;;;4990316;28;20030;-74
2022/08/22 12:05:35;;;;;;;7.80;2.65;;;25.70;69.10;;;;;;4988189;28;20030;-74
2022/08/22 12:08:16;;;;;;;4.57;2.45;;;25.60;69.10;;;;;;4988244;28;20433;-73
2022/08/22 12:10:58;;;;;;;4.78;2.75;;;25.60;67.90;;;;;;4989567;28;20045;-72
2022/08/22 12:13:49;;;;;;;4.43;2.30;;;25.60;67.70;;;;;;4989120;28;20154;-73
2022/08/22 12:16:28;;;;;;;3.67;2.30;;;25.60;67.50;;;;;;4990848;28;20019;-72
2022/08/22 12:19:18;;;;;;;4.75;2.50;;;25.60;67.50;;;;;;4985084;28;20031;-73
2022/08/22 12:22:21;;;;;;;6.07;3.20;;;25.70;70.90;;;;;;4981511;28;20035;-72
2022/08/22 12:24:58;;;;;;;5.03;2.72;;;25.70;72.20;;;;;;4988998;28;20030;-72
2022/08/22 12:27:44;;;;;;;4.00;2.50;;;25.80;69.20;;;;;;5001419;28;20027;-72
2022/08/22 12:30:56;;;;;;;5.25;2.75;;;25.80;68.40;;;;;;4991774;28;20030;-72
2022/08/22 12:33:41;;;;;;;3.95;2.63;;;25.80;70.10;;;;;;4985767;28;20093;-72
2022/08/22 12:36:22;;;;;;;6.70;2.88;;;25.70;69.60;;;;;;5006174;28;20030;-72
2022/08/22 12:39:29;;;;;;;6.15;3.22;;;25.60;69.00;;;;;;4986498;28;20054;-71
2022/08/22 12:42:07;;;;;;;4.82;2.85;;;25.60;69.10;;;;;;4988914;28;20030;-72
2022/08/22 12:44:35;;;;;;;6.07;2.85;;;25.50;69.20;;;;;;4985705;28;20042;-72
2022/08/22 12:47:13;;;;;;;4.10;2.80;;;25.40;68.40;;;;;;4987820;28;20510;-73
2022/08/22 12:50:15;;;;;;;6.90;2.97;;;25.50;68.20;;;;;;4994233;28;20029;-73
2022/08/22 12:53:01;;;;;;;4.82;2.75;;;25.30;68.00;;;;;;4981155;28;20081;-73
2022/08/22 12:55:29;;;;;;;4.80;2.63;;;25.30;68.90;;;;;;4989167;28;20491;-74
2022/08/22 12:58:21;;;;;;;5.03;2.70;;;25.30;67.80;;;;;;4992007;28;20418;-73
2022/08/22 13:00:48;;;;;;;4.72;3.10;;;25.30;68.20;;;;;;4986838;28;20111;-74
2022/08/22 13:03:34;;;;;;;4.28;2.42;;;25.30;68.80;;;;;;4988178;28;20484;-74
2022/08/22 13:06:24;;;;;;;7.20;3.42;;;25.30;68.60;;;;;;4994086;28;20026;-73
2022/08/22 13:08:50;;;;;;;3.72;2.88;;;25.30;69.50;;;;;;4993958;28;20034;-73
2022/08/22 13:11:17;;;;;;;3.65;2.40;;;25.30;69.60;;;;;;4990284;28;20038;-73
2022/08/22 13:13:51;;;;;;;6.00;3.10;;;25.30;69.70;;;;;;4994225;28;20116;-73
2022/08/22 13:16:19;;;;;;;5.60;2.83;;;25.40;69.00;;;;;;4996032;28;20047;-73
2022/08/22 13:19:00;;;;;;;3.30;3.00;;;25.50;68.90;;;;;;4999396;28;20038;-74
2022/08/22 13:21:30;;;;;;;4.60;3.13;;;25.50;68.80;;;;;;4998260;28;20019;-74
2022/08/22 13:24:02;;;;;;;5.43;3.15;;;25.50;68.00;;;;;;4992849;28;20025;-73
2022/08/22 13:26:30;;;;;;;3.38;2.45;;;25.50;68.10;;;;;;4993267;28;20025;-73
2022/08/22 13:29:13;;;;;;;2.83;2.45;;;25.60;68.20;;;;;;4998153;28;20054;-74
2022/08/22 13:31:41;;;;;;;5.25;2.97;;;25.60;68.70;;;;;;4993519;28;20081;-74
2022/08/22 13:34:37;;;;;;;5.13;3.40;;;25.70;69.70;;;;;;4997989;28;20030;-75
2022/08/22 13:37:04;;;;;;;6.00;3.03;;;25.70;70.30;;;;;;4995179;28;20033;-74
2022/08/22 13:39:37;;;;;;;3.42;2.70;;;25.70;70.10;;;;;;4990007;28;20133;-75
2022/08/22 13:42:05;;;;;;;4.93;2.63;;;25.70;70.20;;;;;;5002121;28;20037;-74
2022/08/22 13:44:38;;;;;;;3.85;3.05;;;25.70;69.60;;;;;;4995640;28;20037;-75
2022/08/22 13:47:08;;;;;;;4.95;3.60;;;25.70;70.10;;;;;;4996668;28;20018;-74
2022/08/22 13:49:35;;;;;;;5.32;3.20;;;25.70;70.50;;;;;;4996058;28;20025;-74
2022/08/22 13:52:28;;;;;;;7.63;3.03;;;25.70;70.60;;;;;;4996991;28;20022;-74
2022/08/22 13:54:54;;;;;;;4.28;2.78;;;25.60;70.20;;;;;;4997451;28;20026;-73